Terminal Aerodrome Forecast
Issued by NWS

Home | Current Version | Previous Version | Graphics & Text | Print | Product List | Glossary On
Versions: 1 2 3 4 5 6 7 8 9 10 11 12 13 14 15 16 17 18 19 20
000
FTUS43 KMPX 242330
TAFRWF
TAF
KRWF 242330Z 2500/2524 15011KT P6SM VCTS SCT025CB OVC040
     FM250600 22009KT P6SM BKN050
     FM251500 27014G22KT P6SM BKN025 OVC035
     FM252000 29023G32KT P6SM OVC025=

USA.gov is the U.S. government's official web portal to all federal, state and local government web resources and services.